Time;durP1;ratioP1;P1;durP2;ratioP2;P2;SDS_P1;SDS_P2;PMS_P1;PMS_P2;Temp;Humidity;BMP_temperature;BMP_pressure;BME280_temperature;BME280_humidity;BME280_pressure;Samples;Min_cycle;Max_cycle;Signal;HPM_P1;HPM_P2
2022/05/26 00:00:30;;;;;;;34.33;10.15;;;;;;;;;;5057700;28;20049;-25
2022/05/26 00:02:56;;;;;;;35.63;10.85;;;;;;;;;;5052072;28;20049;-26
2022/05/26 00:05:22;;;;;;;34.72;8.02;;;;;;;;;;5053589;28;20044;-25
2022/05/26 00:07:49;;;;;;;28.10;8.55;;;;;;;;;;5054051;28;20084;-24
2022/05/26 00:10:15;;;;;;;33.60;9.55;;;;;;;;;;5054972;28;20102;-24
2022/05/26 00:12:41;;;;;;;33.13;10.48;;;;;;;;;;5056249;28;20045;-25
2022/05/26 00:15:07;;;;;;;31.80;10.55;;;;;;;;;;5054043;28;20080;-25
2022/05/26 00:17:34;;;;;;;41.72;10.95;;;;;;;;;;5053835;28;20049;-25
2022/05/26 00:20:00;;;;;;;39.00;10.68;;;;;;;;;;5054127;28;20123;-25
2022/05/26 00:22:27;;;;;;;49.38;11.77;;;;;;;;;;5054055;28;20048;-25
2022/05/26 00:24:53;;;;;;;45.20;13.95;;;;;;;;;;5053005;28;20199;-24
2022/05/26 00:27:19;;;;;;;30.15;8.20;;;;;;;;;;5054179;28;20072;-24
2022/05/26 00:29:45;;;;;;;37.10;10.25;;;;;;;;;;5054140;28;20098;-24
2022/05/26 00:32:11;;;;;;;40.67;9.45;;;;;;;;;;5066325;28;20051;-25
2022/05/26 00:34:37;;;;;;;43.60;11.85;;;;;;;;;;5054560;28;20128;-24
2022/05/26 00:37:10;;;;;;;40.55;10.23;;;;;;;;;;5053487;28;20514;-25
2022/05/26 00:39:37;;;;;;;43.05;10.30;;;;;;;;;;5053487;28;20080;-24
2022/05/26 00:42:05;;;;;;;49.38;10.02;;;;;;;;;;5053393;28;20462;-25
2022/05/26 00:44:31;;;;;;;34.20;10.20;;;;;;;;;;5053874;28;20053;-24
2022/05/26 00:47:04;;;;;;;40.40;10.65;;;;;;;;;;5035744;28;20103;-25
2022/05/26 00:49:41;;;;;;;41.53;8.77;;;;;;;;;;5051511;28;20075;-25
2022/05/26 00:52:12;;;;;;;42.38;10.30;;;;;;;;;;5053890;28;20299;-24
2022/05/26 00:54:38;;;;;;;34.15;8.20;;;;;;;;;;5067832;28;20516;-24
2022/05/26 00:57:08;;;;;;;46.13;10.85;;;;;;;;;;5056176;28;20402;-24
2022/05/26 00:59:43;;;;;;;42.03;8.73;;;;;;;;;;5073662;28;20494;-24
2022/05/26 01:02:11;;;;;;;43.47;10.35;;;;;;;;;;5063057;28;20048;-25
2022/05/26 01:04:43;;;;;;;34.75;9.13;;;;;;;;;;5056816;28;20084;-25
2022/05/26 01:07:12;;;;;;;46.47;10.10;;;;;;;;;;5052592;28;20052;-25
2022/05/26 01:09:38;;;;;;;30.00;8.10;;;;;;;;;;5050903;28;20055;-26
2022/05/26 01:12:04;;;;;;;40.67;11.30;;;;;;;;;;5056937;28;20044;-24
2022/05/26 01:14:32;;;;;;;38.50;8.70;;;;;;;;;;5053378;28;20045;-25
2022/05/26 01:17:00;;;;;;;40.38;9.50;;;;;;;;;;5053534;28;20057;-25
2022/05/26 01:19:45;;;;;;;32.92;8.10;;;;;;;;;;5053010;28;20037;-25
2022/05/26 01:22:32;;;;;;;41.88;9.38;;;;;;;;;;5054018;28;20053;-24
2022/05/26 01:25:13;;;;;;;42.90;8.68;;;;;;;;;;5057767;28;20047;-25
2022/05/26 01:27:41;;;;;;;24.45;7.03;;;;;;;;;;5062900;28;20044;-25
2022/05/26 01:30:20;;;;;;;44.00;8.85;;;;;;;;;;5052188;28;20553;-25
2022/05/26 01:33:05;;;;;;;33.63;8.25;;;;;;;;;;5053907;28;20053;-25
2022/05/26 01:35:34;;;;;;;31.33;7.38;;;;;;;;;;5052725;28;20065;-25
2022/05/26 01:38:18;;;;;;;37.42;7.63;;;;;;;;;;5070228;28;20095;-25
2022/05/26 01:41:03;;;;;;;25.67;7.00;;;;;;;;;;5072306;28;20067;-24
2022/05/26 01:43:40;;;;;;;39.03;8.40;;;;;;;;;;5067295;28;20045;-25
2022/05/26 01:46:09;;;;;;;34.65;7.72;;;;;;;;;;5053358;28;20049;-25
2022/05/26 01:48:54;;;;;;;34.53;8.00;;;;;;;;;;5052674;28;20440;-25
2022/05/26 01:51:36;;;;;;;33.15;6.97;;;;;;;;;;5050759;28;20494;-25
2022/05/26 01:54:05;;;;;;;40.00;6.90;;;;;;;;;;5052176;28;20056;-25
2022/05/26 01:56:38;;;;;;;34.15;8.05;;;;;;;;;;5051567;28;20049;-27
2022/05/26 01:59:04;;;;;;;;;;;;;;;;;;5051841;28;20048;-25
2022/05/26 02:01:33;;;;;;;47.88;8.80;;;;;;;;;;5053070;28;19921;-25
2022/05/26 02:03:59;;;;;;;34.03;8.07;;;;;;;;;;5059596;28;20049;-25
2022/05/26 02:06:29;;;;;;;44.38;9.57;;;;;;;;;;5067907;28;20044;-25
2022/05/26 02:09:09;;;;;;;30.45;7.95;;;;;;;;;;5076780;28;20044;-25
2022/05/26 02:11:38;;;;;;;41.78;9.23;;;;;;;;;;5072767;28;20052;-25
2022/05/26 02:14:15;;;;;;;33.20;6.72;;;;;;;;;;5068520;28;20197;-25
2022/05/26 02:16:53;;;;;;;28.92;7.25;;;;;;;;;;5056399;28;20093;-25
2022/05/26 02:19:22;;;;;;;30.77;6.72;;;;;;;;;;5056239;28;20045;-25
2022/05/26 02:22:17;;;;;;;34.97;7.00;;;;;;;;;;5055595;28;20052;-25
2022/05/26 02:24:50;;;;;;;24.60;5.82;;;;;;;;;;5036440;28;20145;-25
2022/05/26 02:27:16;;;;;;;29.97;6.70;;;;;;;;;;5056546;28;20114;-25
2022/05/26 02:29:51;;;;;;;36.13;7.88;;;;;;;;;;5054836;28;20044;-25
2022/05/26 02:32:21;;;;;;;35.42;7.40;;;;;;;;;;5055846;28;20514;-25
2022/05/26 02:34:49;;;;;;;37.13;10.13;;;;;;;;;;5055746;28;20041;-25
2022/05/26 02:37:16;;;;;;;26.33;6.50;;;;;;;;;;5054840;28;20402;-26
2022/05/26 02:39:42;;;;;;;26.60;6.30;;;;;;;;;;5055898;28;20103;-25
2022/05/26 02:42:09;;;;;;;36.40;7.97;;;;;;;;;;5055162;28;20395;-25
2022/05/26 02:44:36;;;;;;;22.88;6.40;;;;;;;;;;5056030;28;20436;-25
2022/05/26 02:47:08;;;;;;;26.13;6.05;;;;;;;;;;5055533;28;20124;-25
2022/05/26 02:49:46;;;;;;;21.85;5.03;;;;;;;;;;5068024;28;20048;-25
2022/05/26 02:52:19;;;;;;;25.05;5.85;;;;;;;;;;5064290;28;20056;-25
2022/05/26 02:55:03;;;;;;;21.58;5.03;;;;;;;;;;5053348;28;20138;-25
2022/05/26 02:57:30;;;;;;;18.17;4.55;;;;;;;;;;5055038;28;20503;-26
2022/05/26 03:00:14;;;;;;;25.17;5.18;;;;;;;;;;5056111;28;20060;-25
2022/05/26 03:02:40;;;;;;;24.27;4.68;;;;;;;;;;5057279;28;20045;-25
2022/05/26 03:05:10;;;;;;;23.67;5.03;;;;;;;;;;5055319;28;20097;-26
2022/05/26 03:07:39;;;;;;;24.10;6.95;;;;;;;;;;5056526;28;20049;-25
2022/05/26 03:10:06;;;;;;;24.63;6.75;;;;;;;;;;5058804;28;20055;-25
2022/05/26 03:12:34;;;;;;;21.33;5.40;;;;;;;;;;5055434;28;20091;-26
2022/05/26 03:15:00;;;;;;;25.38;6.20;;;;;;;;;;5070003;28;20037;-25
2022/05/26 03:17:26;;;;;;;25.13;6.00;;;;;;;;;;5055152;28;20401;-25
2022/05/26 03:19:53;;;;;;;21.38;5.72;;;;;;;;;;5055620;28;20048;-25
2022/05/26 03:22:19;;;;;;;20.00;4.65;;;;;;;;;;5053915;28;20045;-25
2022/05/26 03:24:45;;;;;;;23.70;4.97;;;;;;;;;;5058476;28;20045;-25
2022/05/26 03:27:11;;;;;;;17.27;4.25;;;;;;;;;;5075367;28;20083;-25
2022/05/26 03:29:37;;;;;;;17.13;5.45;;;;;;;;;;5054327;28;20045;-25
2022/05/26 03:32:04;;;;;;;16.80;4.45;;;;;;;;;;5056515;28;20494;-25
2022/05/26 03:42:45;;;;;;;12.68;2.63;;;;;;;;;;5054861;28;20409;-26
2022/05/26 03:45:12;;;;;;;23.35;4.05;;;;;;;;;;5053541;28;20486;-25
2022/05/26 03:47:39;;;;;;;16.17;2.63;;;;;;;;;;5054457;28;20048;-25
2022/05/26 03:50:05;;;;;;;15.55;3.78;;;;;;;;;;5053444;28;20052;-25
2022/05/26 03:52:32;;;;;;;21.13;3.67;;;;;;;;;;5054892;28;20067;-25
2022/05/26 03:54:58;;;;;;;14.43;2.90;;;;;;;;;;5058378;28;20041;-25
2022/05/26 03:57:26;;;;;;;16.02;2.60;;;;;;;;;;5057267;28;20052;-25
2022/05/26 03:59:52;;;;;;;14.02;3.22;;;;;;;;;;5065680;28;20155;-25
2022/05/26 04:02:18;;;;;;;17.02;3.75;;;;;;;;;;5053481;28;20055;-25
2022/05/26 04:04:44;;;;;;;11.52;2.10;;;;;;;;;;5054526;28;20057;-25
2022/05/26 04:07:11;;;;;;;11.50;3.22;;;;;;;;;;5054864;28;20148;-25
2022/05/26 04:09:37;;;;;;;9.13;2.53;;;;;;;;;;5055118;28;20178;-25
2022/05/26 04:12:05;;;;;;;9.70;1.70;;;;;;;;;;5053328;28;20182;-25
2022/05/26 04:14:31;;;;;;;9.13;2.28;;;;;;;;;;5054459;28;20414;-25
2022/05/26 04:17:00;;;;;;;14.38;2.10;;;;;;;;;;5054126;28;20048;-25
2022/05/26 04:19:27;;;;;;;16.33;3.28;;;;;;;;;;5053919;28;20398;-25
2022/05/26 04:24:38;;;;;;;8.73;2.00;;;;;;;;;;5052968;28;20041;-25
2022/05/26 04:27:04;;;;;;;9.88;2.35;;;;;;;;;;5052427;28;20545;-25
2022/05/26 04:29:31;;;;;;;8.70;1.50;;;;;;;;;;5053201;28;20053;-25
2022/05/26 04:31:57;;;;;;;10.45;2.08;;;;;;;;;;5053819;28;20045;-25
2022/05/26 04:34:23;;;;;;;12.30;3.20;;;;;;;;;;5065712;28;20037;-25
2022/05/26 04:36:49;;;;;;;12.57;1.55;;;;;;;;;;5057416;28;20056;-25
2022/05/26 04:39:16;;;;;;;11.77;2.85;;;;;;;;;;5052995;28;20083;-25
2022/05/26 04:41:43;;;;;;;8.27;2.63;;;;;;;;;;5056022;28;20052;-25
2022/05/26 04:44:10;;;;;;;10.80;1.75;;;;;;;;;;5053319;28;20098;-25
2022/05/26 04:46:36;;;;;;;10.55;1.70;;;;;;;;;;5053326;28;20048;-25
2022/05/26 04:49:06;;;;;;;9.48;1.67;;;;;;;;;;5053753;28;20044;-25
2022/05/26 04:51:34;;;;;;;8.95;1.85;;;;;;;;;;5052144;28;20055;-25
2022/05/26 04:54:00;;;;;;;8.60;1.40;;;;;;;;;;5053987;28;20083;-25
2022/05/26 04:56:27;;;;;;;14.20;2.45;;;;;;;;;;5050849;28;20478;-25
2022/05/26 04:58:53;;;;;;;9.38;1.67;;;;;;;;;;5052895;28;20593;-25
2022/05/26 05:01:20;;;;;;;10.10;1.85;;;;;;;;;;5053042;28;20054;-25
2022/05/26 05:03:47;;;;;;;12.63;1.95;;;;;;;;;;5053878;28;20053;-25
2022/05/26 05:06:13;;;;;;;12.93;1.73;;;;;;;;;;5055989;28;20099;-25
2022/05/26 05:08:41;;;;;;;10.60;1.85;;;;;;;;;;5053565;28;20048;-25
2022/05/26 05:11:07;;;;;;;5.65;1.38;;;;;;;;;;5054199;28;20049;-25
2022/05/26 05:13:33;;;;;;;11.40;1.40;;;;;;;;;;5056198;28;20116;-25
2022/05/26 05:16:04;;;;;;;11.55;1.70;;;;;;;;;;5066953;28;20047;-25
2022/05/26 05:18:32;;;;;;;11.30;1.58;;;;;;;;;;5068678;28;20044;-25
2022/05/26 05:21:00;;;;;;;9.52;1.35;;;;;;;;;;5053348;28;20053;-25
2022/05/26 05:23:26;;;;;;;11.23;1.98;;;;;;;;;;5053761;28;20045;-25
2022/05/26 05:25:57;;;;;;;8.48;1.60;;;;;;;;;;5052584;28;20409;-25
2022/05/26 05:28:34;;;;;;;7.80;1.23;;;;;;;;;;5053428;28;20088;-25
2022/05/26 05:31:00;;;;;;;18.65;1.85;;;;;;;;;;5052777;28;20084;-25
2022/05/26 05:33:26;;;;;;;4.43;0.95;;;;;;;;;;5053720;28;20048;-25
2022/05/26 05:35:57;;;;;;;8.15;2.17;;;;;;;;;;5054099;28;20397;-26
2022/05/26 05:38:24;;;;;;;7.43;1.40;;;;;;;;;;5056858;28;20041;-25
2022/05/26 05:40:50;;;;;;;6.72;1.10;;;;;;;;;;5057879;28;20091;-25
2022/05/26 05:43:17;;;;;;;5.50;1.00;;;;;;;;;;5060148;28;20493;-25
2022/05/26 05:45:43;;;;;;;9.90;1.50;;;;;;;;;;5077285;28;20044;-25
2022/05/26 05:48:09;;;;;;;9.35;1.30;;;;;;;;;;5057768;28;20115;-25
2022/05/26 05:50:35;;;;;;;10.70;1.50;;;;;;;;;;5056257;28;20049;-25
2022/05/26 05:53:01;;;;;;;8.05;1.42;;;;;;;;;;5056065;28;20049;-25
2022/05/26 05:55:29;;;;;;;6.85;1.58;;;;;;;;;;5057513;28;20044;-25
2022/05/26 05:57:55;;;;;;;9.85;1.40;;;;;;;;;;5055739;28;20052;-25
2022/05/26 06:00:21;;;;;;;7.25;1.58;;;;;;;;;;5054674;28;20076;-24
2022/05/26 06:02:47;;;;;;;9.02;1.25;;;;;;;;;;5055496;28;20049;-25
2022/05/26 06:05:13;;;;;;;6.18;1.10;;;;;;;;;;5057329;28;20596;-24
2022/05/26 06:07:41;;;;;;;5.70;1.02;;;;;;;;;;5056580;28;20049;-25
2022/05/26 06:10:08;;;;;;;7.10;0.82;;;;;;;;;;5056252;28;20049;-25
2022/05/26 06:12:35;;;;;;;4.95;1.10;;;;;;;;;;5064283;28;20405;-25
2022/05/26 06:15:01;;;;;;;9.20;0.90;;;;;;;;;;5057204;28;20048;-25
2022/05/26 06:17:27;;;;;;;8.23;1.77;;;;;;;;;;5072389;28;20470;-24
2022/05/26 06:19:53;;;;;;;7.60;1.48;;;;;;;;;;5057206;28;20045;-25
2022/05/26 06:22:20;;;;;;;5.50;1.48;;;;;;;;;;5056110;28;20052;-25
2022/05/26 06:24:47;;;;;;;10.43;1.75;;;;;;;;;;5055261;28;20037;-25
2022/05/26 06:29:59;;;;;;;5.13;1.20;;;;;;;;;;5055661;28;20388;-25
2022/05/26 06:37:56;;;;;;;8.23;1.20;;;;;;;;;;5058922;28;20132;-26
2022/05/26 06:40:22;;;;;;;5.28;0.95;;;;;;;;;;5056192;28;20056;-24
2022/05/26 06:42:49;;;;;;;8.43;1.50;;;;;;;;;;5054948;28;20052;-24
2022/05/26 06:45:16;;;;;;;7.40;1.40;;;;;;;;;;5061658;28;20049;-25
2022/05/26 06:47:42;;;;;;;8.60;1.27;;;;;;;;;;5058344;28;20478;-24
2022/05/26 06:50:10;;;;;;;6.72;1.15;;;;;;;;;;5072237;28;20076;-24
2022/05/26 06:52:37;;;;;;;6.22;1.08;;;;;;;;;;5060416;28;20064;-24
2022/05/26 06:55:05;;;;;;;6.82;1.42;;;;;;;;;;5061526;28;20037;-25
2022/05/26 06:57:31;;;;;;;10.18;1.10;;;;;;;;;;5061487;28;20079;-24
2022/05/26 06:59:57;;;;;;;7.13;0.90;;;;;;;;;;5061330;28;20131;-24
2022/05/26 07:02:24;;;;;;;9.52;1.42;;;;;;;;;;5075094;28;20036;-24
2022/05/26 07:04:51;;;;;;;6.10;0.98;;;;;;;;;;5067152;28;20103;-25
2022/05/26 07:07:17;;;;;;;9.50;1.27;;;;;;;;;;5056002;28;20468;-24
2022/05/26 07:09:43;;;;;;;9.02;1.00;;;;;;;;;;5055687;28;20525;-24
2022/05/26 07:12:10;;;;;;;8.20;1.48;;;;;;;;;;5055297;28;20376;-24
2022/05/26 07:14:36;;;;;;;7.93;1.38;;;;;;;;;;5055590;28;20475;-24
2022/05/26 07:17:02;;;;;;;8.82;1.10;;;;;;;;;;5064761;28;20048;-24
2022/05/26 07:19:32;;;;;;;10.63;1.30;;;;;;;;;;5074677;28;20179;-24
2022/05/26 07:21:58;;;;;;;7.72;1.77;;;;;;;;;;5076129;28;20055;-24
2022/05/26 07:24:25;;;;;;;8.50;1.10;;;;;;;;;;5075055;28;20040;-24
2022/05/26 07:26:52;;;;;;;3.65;1.00;;;;;;;;;;5075291;28;20049;-24
2022/05/26 07:29:18;;;;;;;11.13;2.08;;;;;;;;;;5074404;28;20056;-24
2022/05/26 07:31:46;;;;;;;5.95;1.00;;;;;;;;;;5075600;28;20067;-24
2022/05/26 07:34:12;;;;;;;8.27;1.42;;;;;;;;;;5075819;28;20041;-24
2022/05/26 07:42:11;;;;;;;7.10;1.38;;;;;;;;;;5059613;28;20059;-25
2022/05/26 07:44:39;;;;;;;4.57;0.93;;;;;;;;;;5074939;28;20051;-24
2022/05/26 07:47:06;;;;;;;7.65;1.40;;;;;;;;;;5065499;28;20048;-24
2022/05/26 07:49:47;;;;;;;7.03;0.80;;;;;;;;;;5054940;28;20049;-24
2022/05/26 07:52:14;;;;;;;9.55;1.23;;;;;;;;;;5060743;28;20048;-25
2022/05/26 07:54:41;;;;;;;8.02;1.45;;;;;;;;;;5074877;28;20044;-24
2022/05/26 07:57:07;;;;;;;9.45;1.45;;;;;;;;;;5074751;28;20127;-24
2022/05/26 07:59:34;;;;;;;6.57;1.15;;;;;;;;;;5062540;28;20048;-24
2022/05/26 08:02:00;;;;;;;4.88;0.80;;;;;;;;;;5057367;28;20428;-25
2022/05/26 08:04:26;;;;;;;5.80;0.93;;;;;;;;;;5068888;28;20045;-25
2022/05/26 08:06:52;;;;;;;7.10;1.45;;;;;;;;;;5059514;28;20059;-25
2022/05/26 08:09:20;;;;;;;7.13;1.35;;;;;;;;;;5068983;28;20053;-24
2022/05/26 08:11:46;;;;;;;8.10;1.17;;;;;;;;;;5072282;28;20086;-25
2022/05/26 08:14:12;;;;;;;6.72;1.10;;;;;;;;;;5065587;28;20040;-24
2022/05/26 08:16:39;;;;;;;4.82;0.88;;;;;;;;;;5073440;28;20090;-24
2022/05/26 08:19:05;;;;;;;5.47;1.00;;;;;;;;;;5074885;28;20052;-24
2022/05/26 08:21:32;;;;;;;8.50;1.15;;;;;;;;;;5074315;28;20074;-24
2022/05/26 08:24:00;;;;;;;6.70;0.95;;;;;;;;;;5069944;28;20062;-25
2022/05/26 08:26:26;;;;;;;6.03;1.10;;;;;;;;;;5053361;28;20044;-24
2022/05/26 08:28:52;;;;;;;8.13;1.77;;;;;;;;;;5054249;28;20045;-24
2022/05/26 08:31:18;;;;;;;6.60;1.17;;;;;;;;;;5054169;28;20052;-24
2022/05/26 08:33:45;;;;;;;6.25;1.33;;;;;;;;;;5054125;28;20045;-24
2022/05/26 08:36:15;;;;;;;7.25;1.20;;;;;;;;;;5067571;28;20053;-25
2022/05/26 08:38:43;;;;;;;8.70;1.13;;;;;;;;;;5054457;28;20053;-24
2022/05/26 08:41:13;;;;;;;6.78;1.13;;;;;;;;;;5064236;28;20496;-24
2022/05/26 08:43:41;;;;;;;12.00;2.03;;;;;;;;;;5073928;28;20131;-24
2022/05/26 08:46:08;;;;;;;4.32;0.73;;;;;;;;;;5073781;28;20470;-25
2022/05/26 08:48:48;;;;;;;4.70;1.17;;;;;;;;;;5073924;28;20054;-24
2022/05/26 08:51:22;;;;;;;6.38;1.05;;;;;;;;;;5057674;28;20128;-25
2022/05/26 08:53:50;;;;;;;3.65;0.52;;;;;;;;;;5073170;28;20048;-24
2022/05/26 08:56:18;;;;;;;5.40;0.75;;;;;;;;;;5066689;28;20052;-24
2022/05/26 08:58:46;;;;;;;6.95;1.30;;;;;;;;;;5053877;28;20049;-26
2022/05/26 09:01:15;;;;;;;6.38;0.93;;;;;;;;;;5074390;28;20052;-24
2022/05/26 09:03:42;;;;;;;6.82;1.25;;;;;;;;;;5071144;28;20074;-24
2022/05/26 09:06:09;;;;;;;6.07;1.52;;;;;;;;;;5073691;28;20070;-24
2022/05/26 09:14:27;;;;;;;6.13;1.38;;;;;;;;;;5071346;28;20044;-24
2022/05/26 09:16:56;;;;;;;5.53;1.30;;;;;;;;;;5073583;28;20048;-25
2022/05/26 09:19:23;;;;;;;6.30;1.45;;;;;;;;;;5073348;28;20037;-26
2022/05/26 09:21:50;;;;;;;6.80;0.90;;;;;;;;;;5060736;28;20043;-24
2022/05/26 09:24:25;;;;;;;6.13;0.95;;;;;;;;;;5073449;28;20086;-24
2022/05/26 09:26:54;;;;;;;7.30;1.75;;;;;;;;;;5061745;28;20052;-24
2022/05/26 09:29:25;;;;;;;5.38;0.90;;;;;;;;;;5053297;28;20114;-24
2022/05/26 09:31:51;;;;;;;9.63;1.52;;;;;;;;;;5052259;28;20049;-24
2022/05/26 09:34:19;;;;;;;5.68;0.88;;;;;;;;;;5060134;28;20041;-25
2022/05/26 09:36:46;;;;;;;12.20;0.98;;;;;;;;;;5073907;28;20048;-24
2022/05/26 09:39:12;;;;;;;5.50;0.50;;;;;;;;;;5059589;28;20076;-25
2022/05/26 09:41:39;;;;;;;4.07;0.65;;;;;;;;;;5053338;28;20056;-24
2022/05/26 09:44:17;;;;;;;3.90;0.70;;;;;;;;;;5053243;28;20041;-24
2022/05/26 09:46:48;;;;;;;3.60;0.68;;;;;;;;;;5053318;28;20056;-24
2022/05/26 09:49:14;;;;;;;3.90;0.65;;;;;;;;;;5053600;28;20049;-25
2022/05/26 09:51:44;;;;;;;3.90;0.68;;;;;;;;;;5053562;28;20041;-25
2022/05/26 09:54:23;;;;;;;4.40;0.82;;;;;;;;;;5053432;28;20041;-24
2022/05/26 09:56:49;;;;;;;5.03;0.75;;;;;;;;;;5060681;28;20135;-25
2022/05/26 09:59:29;;;;;;;8.15;0.90;;;;;;;;;;5073167;28;20088;-24
2022/05/26 10:02:18;;;;;;;4.68;0.77;;;;;;;;;;5060934;28;20041;-25
2022/05/26 10:05:03;;;;;;;4.97;0.52;;;;;;;;;;5069750;28;20060;-24
2022/05/26 10:07:35;;;;;;;7.40;0.88;;;;;;;;;;5057027;28;20059;-25
2022/05/26 10:10:21;;;;;;;4.00;1.00;;;;;;;;;;5052316;28;20555;-24
2022/05/26 10:12:48;;;;;;;4.03;0.40;;;;;;;;;;5034703;28;20050;-24
2022/05/26 10:15:19;;;;;;;3.90;0.75;;;;;;;;;;5052892;28;20041;-25
2022/05/26 10:18:03;;;;;;;4.75;0.57;;;;;;;;;;5053054;28;20048;-25
2022/05/26 10:20:59;;;;;;;2.55;0.75;;;;;;;;;;5051974;28;20056;-25
2022/05/26 10:23:44;;;;;;;4.18;0.68;;;;;;;;;;5050002;28;20426;-24
2022/05/26 10:26:30;;;;;;;7.38;0.70;;;;;;;;;;5055720;28;20047;-24
2022/05/26 10:29:14;;;;;;;3.78;0.80;;;;;;;;;;5057002;28;20091;-24
2022/05/26 10:31:57;;;;;;;2.42;0.32;;;;;;;;;;5054798;28;20508;-24
2022/05/26 10:34:23;;;;;;;;;;;;;;;;;;5056390;28;20037;-25
2022/05/26 10:37:08;;;;;;;8.90;1.02;;;;;;;;;;5055799;28;20294;-25
2022/05/26 10:39:43;;;;;;;8.25;1.08;;;;;;;;;;5056015;28;20063;-25
2022/05/26 10:42:28;;;;;;;4.00;0.93;;;;;;;;;;5069148;28;20047;-25
2022/05/26 10:45:03;;;;;;;7.65;1.00;;;;;;;;;;5056579;28;20178;-24
2022/05/26 10:47:37;;;;;;;3.38;0.60;;;;;;;;;;5068393;28;20048;-25
2022/05/26 10:50:11;;;;;;;4.82;0.80;;;;;;;;;;5076176;28;20127;-26
2022/05/26 10:52:39;;;;;;;5.70;0.80;;;;;;;;;;5077008;28;20052;-24
2022/05/26 10:55:11;;;;;;;5.53;0.80;;;;;;;;;;5075881;28;20053;-25
2022/05/26 10:57:55;;;;;;;10.57;1.55;;;;;;;;;;5066513;28;20410;-25
2022/05/26 11:00:23;;;;;;;7.97;1.20;;;;;;;;;;5055627;28;20143;-25
2022/05/26 11:02:57;;;;;;;3.83;0.80;;;;;;;;;;5055627;28;20049;-25
2022/05/26 11:05:35;;;;;;;6.80;1.42;;;;;;;;;;5058652;28;20509;-25
2022/05/26 11:08:19;;;;;;;7.90;1.13;;;;;;;;;;5055048;28;20095;-25
2022/05/26 11:10:48;;;;;;;7.03;1.00;;;;;;;;;;5065337;28;20049;-25
2022/05/26 11:13:34;;;;;;;7.13;0.70;;;;;;;;;;5063157;28;20063;-24
2022/05/26 11:18:48;;;;;;;3.25;0.47;;;;;;;;;;5061243;28;20044;-25
2022/05/26 11:21:17;;;;;;;3.20;0.70;;;;;;;;;;5061301;28;20044;-25
2022/05/26 11:23:43;;;;;;;4.63;0.65;;;;;;;;;;5062807;28;20120;-25
2022/05/26 11:26:21;;;;;;;7.22;1.17;;;;;;;;;;5066338;28;20040;-25
2022/05/26 11:28:50;;;;;;;3.15;0.73;;;;;;;;;;5060269;28;20483;-25
2022/05/26 11:37:15;;;;;;;7.70;1.17;;;;;;;;;;5055316;28;20088;-25
2022/05/26 11:39:42;;;;;;;5.00;0.85;;;;;;;;;;5055224;28;20083;-25
2022/05/26 11:42:14;;;;;;;5.25;0.80;;;;;;;;;;5055428;28;20055;-25
2022/05/26 11:44:40;;;;;;;4.47;1.00;;;;;;;;;;5055683;28;20179;-25
2022/05/26 11:47:25;;;;;;;3.25;0.73;;;;;;;;;;5056576;28;20048;-24
2022/05/26 11:49:53;;;;;;;5.38;0.77;;;;;;;;;;5074118;28;20089;-25
2022/05/26 11:52:24;;;;;;;4.45;0.80;;;;;;;;;;5073874;28;20501;-25
2022/05/26 11:54:52;;;;;;;5.65;1.20;;;;;;;;;;5074827;28;20124;-24
2022/05/26 11:57:39;;;;;;;3.75;0.90;;;;;;;;;;5074910;28;20044;-24
2022/05/26 12:00:21;;;;;;;4.10;1.00;;;;;;;;;;5075094;28;20170;-24
2022/05/26 12:02:50;;;;;;;7.47;0.80;;;;;;;;;;5071207;28;20162;-25
2022/05/26 12:05:29;;;;;;;3.83;0.77;;;;;;;;;;5062678;28;20045;-25
2022/05/26 12:07:56;;;;;;;5.18;1.05;;;;;;;;;;5066303;28;20485;-24
2022/05/26 12:10:24;;;;;;;2.53;0.90;;;;;;;;;;5069014;28;20045;-25
2022/05/26 12:12:50;;;;;;;5.55;1.88;;;;;;;;;;5036620;28;20049;-24
2022/05/26 12:15:21;;;;;;;3.67;0.85;;;;;;;;;;5052287;28;20049;-24
2022/05/26 12:17:50;;;;;;;5.00;1.52;;;;;;;;;;5054596;28;20087;-25
2022/05/26 12:20:16;;;;;;;4.72;0.85;;;;;;;;;;5054646;28;20175;-24
2022/05/26 12:22:52;;;;;;;6.65;1.13;;;;;;;;;;5053677;28;20056;-24
2022/05/26 12:25:23;;;;;;;3.70;0.90;;;;;;;;;;5054215;28;20170;-25
2022/05/26 12:27:51;;;;;;;3.13;0.60;;;;;;;;;;5053277;28;20482;-25
2022/05/26 12:30:36;;;;;;;8.13;1.27;;;;;;;;;;5054228;28;20068;-25
2022/05/26 12:33:09;;;;;;;4.53;1.30;;;;;;;;;;5061842;28;20059;-25
2022/05/26 12:35:44;;;;;;;6.05;2.00;;;;;;;;;;5071032;28;20068;-25
2022/05/26 12:38:23;;;;;;;7.20;1.52;;;;;;;;;;5070243;28;20067;-25
2022/05/26 12:40:49;;;;;;;3.90;0.70;;;;;;;;;;5074061;28;20060;-24
2022/05/26 12:43:34;;;;;;;5.10;1.42;;;;;;;;;;5073877;28;20498;-24
2022/05/26 12:46:03;;;;;;;4.55;0.85;;;;;;;;;;5072128;28;20509;-24
2022/05/26 12:48:43;;;;;;;4.30;0.85;;;;;;;;;;5073982;28;20044;-25
2022/05/26 12:51:11;;;;;;;5.28;1.33;;;;;;;;;;5073961;28;20040;-25
2022/05/26 12:53:39;;;;;;;12.27;1.58;;;;;;;;;;5073868;28;20047;-24
2022/05/26 12:56:10;;;;;;;5.15;1.00;;;;;;;;;;5073850;28;20122;-24
2022/05/26 12:58:37;;;;;;;5.88;1.00;;;;;;;;;;5074168;28;20049;-24
2022/05/26 13:01:05;;;;;;;8.52;1.83;;;;;;;;;;5072724;28;20051;-25
2022/05/26 13:03:31;;;;;;;4.25;1.10;;;;;;;;;;5073846;28;20056;-25
2022/05/26 13:06:02;;;;;;;8.38;1.27;;;;;;;;;;5073725;28;20053;-25
2022/05/26 13:08:31;;;;;;;6.78;1.52;;;;;;;;;;5072543;28;20097;-25
2022/05/26 13:10:58;;;;;;;18.45;0.93;;;;;;;;;;5072728;28;20076;-24
2022/05/26 13:13:40;;;;;;;5.88;1.13;;;;;;;;;;5073644;28;20055;-24
2022/05/26 13:16:26;;;;;;;4.85;1.00;;;;;;;;;;5073498;28;20102;-24
2022/05/26 13:18:53;;;;;;;6.05;1.48;;;;;;;;;;5072650;28;20094;-24
2022/05/26 13:21:24;;;;;;;3.47;1.10;;;;;;;;;;5073585;28;20051;-25
2022/05/26 13:23:51;;;;;;;4.38;1.10;;;;;;;;;;5073529;28;20037;-24
2022/05/26 13:26:17;;;;;;;5.38;1.08;;;;;;;;;;5073602;28;20055;-24
2022/05/26 13:28:47;;;;;;;9.63;1.63;;;;;;;;;;5073528;28;20056;-24
2022/05/26 13:34:01;;;;;;;7.28;1.33;;;;;;;;;;5073508;28;20080;-24
2022/05/26 13:36:31;;;;;;;3.60;1.13;;;;;;;;;;5073425;28;20127;-25
2022/05/26 13:39:03;;;;;;;10.63;1.58;;;;;;;;;;5073404;28;20166;-24
2022/05/26 13:41:29;;;;;;;9.43;1.25;;;;;;;;;;5073730;28;20049;-24
2022/05/26 13:43:56;;;;;;;5.57;1.15;;;;;;;;;;5073298;28;20076;-24
2022/05/26 13:46:33;;;;;;;5.60;0.70;;;;;;;;;;5073300;28;20048;-24
2022/05/26 13:49:00;;;;;;;6.95;2.22;;;;;;;;;;5072695;28;20045;-24
2022/05/26 13:51:36;;;;;;;6.70;1.60;;;;;;;;;;5073311;28;20084;-24
2022/05/26 13:54:21;;;;;;;5.30;1.45;;;;;;;;;;5073336;28;20048;-25
2022/05/26 13:56:48;;;;;;;4.35;1.40;;;;;;;;;;5074526;28;20106;-24
2022/05/26 13:59:15;;;;;;;9.85;2.03;;;;;;;;;;5077141;28;20052;-24
2022/05/26 14:01:53;;;;;;;9.93;1.85;;;;;;;;;;5076485;28;20063;-24
2022/05/26 14:04:39;;;;;;;5.13;1.83;;;;;;;;;;5077410;28;20109;-24
2022/05/26 14:07:25;;;;;;;8.32;1.48;;;;;;;;;;5076692;28;20506;-24
2022/05/26 14:10:05;;;;;;;7.78;1.70;;;;;;;;;;5076919;28;20048;-25
2022/05/26 14:12:31;;;;;;;5.68;1.42;;;;;;;;;;5076897;28;20132;-25
2022/05/26 14:14:58;;;;;;;9.55;1.10;;;;;;;;;;5076821;28;20037;-24
2022/05/26 14:17:55;;;;;;;11.52;1.52;;;;;;;;;;5076777;28;20045;-24
2022/05/26 14:20:29;;;;;;;4.38;1.20;;;;;;;;;;5072461;28;20053;-24
2022/05/26 14:22:55;;;;;;;11.60;1.52;;;;;;;;;;5076740;28;20056;-24
2022/05/26 14:25:26;;;;;;;6.38;1.35;;;;;;;;;;5076529;28;20044;-24
2022/05/26 14:28:04;;;;;;;7.50;1.48;;;;;;;;;;5076659;28;20110;-24
2022/05/26 14:30:39;;;;;;;6.25;1.52;;;;;;;;;;5075117;28;20525;-24
2022/05/26 14:33:08;;;;;;;7.45;1.77;;;;;;;;;;5076517;28;20131;-24
2022/05/26 14:35:34;;;;;;;9.45;1.40;;;;;;;;;;5077013;28;20048;-24
2022/05/26 14:38:00;;;;;;;6.90;1.67;;;;;;;;;;5076929;28;20059;-24
2022/05/26 14:40:26;;;;;;;6.32;2.00;;;;;;;;;;5076371;28;20131;-24
2022/05/26 14:42:53;;;;;;;7.15;1.20;;;;;;;;;;5076359;28;20131;-24
2022/05/26 14:45:20;;;;;;;5.65;1.45;;;;;;;;;;5074968;28;20437;-24
2022/05/26 14:47:46;;;;;;;11.63;2.00;;;;;;;;;;5077061;28;20161;-24
2022/05/26 14:50:13;;;;;;;8.90;1.48;;;;;;;;;;5076201;28;20090;-24
2022/05/26 14:52:41;;;;;;;6.57;1.95;;;;;;;;;;5076123;28;20045;-24
2022/05/26 14:57:53;;;;;;;12.30;1.52;;;;;;;;;;5076397;28;20094;-24
2022/05/26 15:00:20;;;;;;;8.25;1.83;;;;;;;;;;5075990;28;20055;-24
2022/05/26 15:02:46;;;;;;;6.88;1.42;;;;;;;;;;5075670;28;20049;-24
2022/05/26 15:05:12;;;;;;;8.02;1.20;;;;;;;;;;5076369;28;20356;-25
2022/05/26 15:07:39;;;;;;;6.32;1.25;;;;;;;;;;5075808;28;20044;-24
2022/05/26 15:10:06;;;;;;;7.03;1.98;;;;;;;;;;5075365;28;20481;-24
2022/05/26 15:12:34;;;;;;;4.55;1.02;;;;;;;;;;5076061;28;20053;-24
2022/05/26 15:15:01;;;;;;;5.85;1.35;;;;;;;;;;5075741;28;20059;-24
2022/05/26 15:17:27;;;;;;;13.50;2.13;;;;;;;;;;5076249;28;20087;-24
2022/05/26 15:19:56;;;;;;;7.68;1.80;;;;;;;;;;5076214;28;20045;-24
2022/05/26 15:22:22;;;;;;;9.07;1.92;;;;;;;;;;5075606;28;20053;-24
2022/05/26 15:24:49;;;;;;;9.35;2.20;;;;;;;;;;5074644;28;20390;-24
2022/05/26 15:27:17;;;;;;;8.07;1.95;;;;;;;;;;5075445;28;20074;-24
2022/05/26 15:29:43;;;;;;;7.22;1.95;;;;;;;;;;5075421;28;20052;-24
2022/05/26 15:32:10;;;;;;;5.22;1.50;;;;;;;;;;5075356;28;20482;-24
2022/05/26 15:34:37;;;;;;;8.38;2.38;;;;;;;;;;5075316;28;20131;-24
2022/05/26 15:37:04;;;;;;;9.07;2.40;;;;;;;;;;5075270;28;20049;-24
2022/05/26 15:39:30;;;;;;;12.30;2.22;;;;;;;;;;5074551;28;20055;-24